Raymore, Canada
Current Conditions -  °F | °C
As of 5:00 PM on Saturday 25 Oct 2014 (Local Time) from CYQR Reporting Station
Broken Clouds Broken Clouds  
Wind Chill: 52°   Ceiling: 24000
Heat Index: 52°   Visibility: 15mi
Dew Point: 32°   Wind: 8mph
Humidity: 47%   Direction: 130°SE
Pressure: 29.94"   Gusts: NA
Location:  51.4°N, 104.53°W
Report Text: CYQR 252300Z 13007KT 15SM FEW100 BKN240 11/M00 A2994 RMK AC1CI7 AC TR SLP160
Loading
Personal Weather Stations






























Interactive Weather Map
Tropical Storm Tracking
New forecast layout! Learn more

10-Day Weather Forecast

Advertisements
Track Severe Weather on mobile